createdAt,value
2022-11-28T00:01:18.248Z,19.20
2022-11-28T00:03:43.838Z,19.19
2022-11-28T00:06:09.639Z,19.19
2022-11-28T00:08:35.435Z,19.20
2022-11-28T00:11:02.953Z,19.20
2022-11-28T00:13:28.493Z,19.19
2022-11-28T00:15:56.218Z,19.20
2022-11-28T00:18:21.778Z,19.20
2022-11-28T00:20:47.330Z,19.19
2022-11-28T00:23:12.874Z,19.19
2022-11-28T00:25:38.422Z,19.20
2022-11-28T00:28:03.970Z,19.19
2022-11-28T00:30:29.530Z,19.19
2022-11-28T00:32:55.086Z,19.19
2022-11-28T00:35:20.633Z,19.19
2022-11-28T00:37:46.182Z,19.18
2022-11-28T00:40:11.719Z,19.19
2022-11-28T00:42:37.278Z,19.20
2022-11-28T00:45:02.916Z,19.19
2022-11-28T00:47:28.471Z,19.19
2022-11-28T00:49:54.019Z,19.19
2022-11-28T00:52:19.580Z,19.19
2022-11-28T00:54:45.241Z,19.19
2022-11-28T00:57:10.801Z,19.20
2022-11-28T00:59:36.373Z,19.19
2022-11-28T01:02:01.959Z,19.20
2022-11-28T01:04:27.518Z,19.19
2022-11-28T01:06:53.072Z,19.18
2022-11-28T01:09:19.669Z,19.18
2022-11-28T01:11:45.735Z,19.18
2022-11-28T01:14:11.622Z,19.19
2022-11-28T01:16:37.554Z,19.18
2022-11-28T01:19:03.154Z,19.18
2022-11-28T01:21:28.710Z,19.18
2022-11-28T01:23:54.301Z,19.18
2022-11-28T01:26:21.238Z,19.19
2022-11-28T01:28:46.793Z,19.18
2022-11-28T01:31:13.539Z,19.18
2022-11-28T01:33:39.157Z,19.18
2022-11-28T01:36:04.951Z,19.18
2022-11-28T01:38:30.492Z,19.17
2022-11-28T01:40:56.050Z,19.17
2022-11-28T01:43:22.349Z,19.17
2022-11-28T01:45:47.908Z,19.16
2022-11-28T01:48:14.476Z,19.18
2022-11-28T01:50:40.034Z,19.17
2022-11-28T01:53:06.137Z,19.17
2022-11-28T01:55:32.912Z,19.17
2022-11-28T01:57:58.465Z,19.17
2022-11-28T02:00:24.174Z,19.17
2022-11-28T02:02:51.779Z,19.17
2022-11-28T02:05:18.219Z,19.17
2022-11-28T02:07:43.970Z,19.17
2022-11-28T02:10:10.495Z,19.17
2022-11-28T02:12:40.008Z,19.17
2022-11-28T02:15:25.476Z,19.16
2022-11-28T02:17:59.589Z,19.16
2022-11-28T02:20:45.071Z,19.16
2022-11-28T02:23:20.731Z,19.16
2022-11-28T02:26:04.963Z,19.16
2022-11-28T02:28:40.426Z,19.18
2022-11-28T02:31:25.982Z,19.16
2022-11-28T02:33:52.952Z,19.15
2022-11-28T02:36:19.550Z,19.17
2022-11-28T02:39:05.043Z,19.17
2022-11-28T02:41:32.409Z,19.16
2022-11-28T02:44:04.486Z,19.16
2022-11-28T02:46:33.441Z,19.16
2022-11-28T02:49:02.761Z,19.16
2022-11-28T02:51:32.759Z,19.16
2022-11-28T02:53:58.827Z,19.16
2022-11-28T02:56:24.641Z,19.17
2022-11-28T02:58:50.242Z,19.16
2022-11-28T03:01:19.100Z,19.16
2022-11-28T03:04:04.577Z,19.15
2022-11-28T03:06:50.000Z,19.16
2022-11-28T03:09:35.481Z,19.16
2022-11-28T03:12:20.952Z,19.15
2022-11-28T03:15:02.646Z,19.15
2022-11-28T03:17:43.370Z,19.15
2022-11-28T03:20:28.867Z,19.16
2022-11-28T03:22:57.975Z,19.15
2022-11-28T03:25:28.066Z,19.16
2022-11-28T03:27:55.562Z,19.15
2022-11-28T03:30:23.470Z,19.15
2022-11-28T03:32:50.217Z,19.15
2022-11-28T03:35:16.638Z,19.15
2022-11-28T03:37:44.597Z,19.16
2022-11-28T03:40:11.828Z,19.15
2022-11-28T03:42:41.696Z,19.15
2022-11-28T03:45:08.893Z,19.16
2022-11-28T03:47:35.603Z,19.14
2022-11-28T03:50:03.940Z,19.16
2022-11-28T03:52:31.652Z,19.15
2022-11-28T03:54:58.964Z,19.15
2022-11-28T03:57:27.248Z,19.14
2022-11-28T03:59:52.795Z,19.14
2022-11-28T04:02:23.734Z,19.16
2022-11-28T04:05:07.069Z,19.15
2022-11-28T04:07:36.223Z,19.15
2022-11-28T04:10:05.704Z,19.14
2022-11-28T04:12:33.761Z,19.15
2022-11-28T04:15:00.298Z,19.14
2022-11-28T04:17:30.742Z,19.13
2022-11-28T04:19:58.683Z,19.14
2022-11-28T04:22:26.986Z,19.14
2022-11-28T04:24:53.450Z,19.14
2022-11-28T04:27:21.993Z,19.14
2022-11-28T04:29:48.000Z,19.14
2022-11-28T04:32:13.543Z,19.14
2022-11-28T04:34:39.867Z,19.14
2022-11-28T04:37:09.808Z,19.14
2022-11-28T04:39:35.655Z,19.13
2022-11-28T04:42:02.284Z,19.14
2022-11-28T04:44:35.938Z,19.14
2022-11-28T04:47:01.475Z,19.14
2022-11-28T04:49:27.045Z,19.15
2022-11-28T04:51:54.273Z,19.13
2022-11-28T04:54:23.589Z,19.13
2022-11-28T04:56:50.849Z,19.13
2022-11-28T04:59:16.398Z,19.13
2022-11-28T05:01:42.263Z,19.13
2022-11-28T05:04:07.863Z,19.12
2022-11-28T05:06:34.212Z,19.13
2022-11-28T05:08:59.766Z,19.13
2022-11-28T05:11:25.397Z,19.12
2022-11-28T05:13:50.934Z,19.13
2022-11-28T05:16:16.631Z,19.13
2022-11-28T05:18:42.424Z,19.13
2022-11-28T05:21:08.297Z,19.13
2022-11-28T05:23:35.452Z,19.12
2022-11-28T05:26:03.863Z,19.12
2022-11-28T05:28:29.401Z,19.13
2022-11-28T05:30:57.278Z,19.12
2022-11-28T05:33:22.819Z,19.11
2022-11-28T05:35:48.374Z,19.12
2022-11-28T05:38:13.918Z,19.12
2022-11-28T05:40:43.414Z,19.12
2022-11-28T05:43:09.402Z,19.12
2022-11-28T05:45:38.551Z,19.11
2022-11-28T05:48:04.184Z,19.11
2022-11-28T05:50:29.742Z,19.13
2022-11-28T05:52:55.298Z,19.12
2022-11-28T05:55:20.849Z,19.11
2022-11-28T05:57:46.390Z,19.11
2022-11-28T06:00:13.635Z,19.12
2022-11-28T06:02:39.225Z,19.11
2022-11-28T06:05:27.342Z,19.12
2022-11-28T06:07:50.448Z,19.11
2022-11-28T06:10:16.031Z,19.11
2022-11-28T06:12:41.576Z,19.12
2022-11-28T06:15:07.374Z,19.10
2022-11-28T06:17:32.920Z,19.12
2022-11-28T06:19:58.472Z,19.11
2022-11-28T06:22:24.013Z,19.11
2022-11-28T06:24:49.566Z,19.11
2022-11-28T06:27:15.111Z,19.10
2022-11-28T06:29:40.955Z,19.11
2022-11-28T06:32:06.861Z,19.11
2022-11-28T06:34:32.489Z,19.11
2022-11-28T06:36:58.042Z,19.10
2022-11-28T06:39:23.597Z,19.11
2022-11-28T06:41:49.150Z,19.10
2022-11-28T06:44:15.284Z,19.10
2022-11-28T06:46:41.074Z,19.09
2022-11-28T06:49:06.630Z,19.10
2022-11-28T06:51:32.187Z,19.17
2022-11-28T06:53:57.748Z,19.20
2022-11-28T06:56:23.317Z,19.23
2022-11-28T06:58:56.530Z,19.21
2022-11-28T07:01:22.447Z,19.20
2022-11-28T07:03:48.125Z,19.20
2022-11-28T07:06:14.824Z,19.20
2022-11-28T07:08:40.482Z,19.18
2022-11-28T07:11:11.410Z,19.19
2022-11-28T07:13:37.122Z,19.19
2022-11-28T07:16:02.677Z,19.19
2022-11-28T07:18:28.235Z,19.19
2022-11-28T07:20:53.782Z,19.20
2022-11-28T07:23:19.338Z,19.20
2022-11-28T07:25:44.894Z,19.20
2022-11-28T07:28:10.467Z,19.21
2022-11-28T07:30:36.056Z,19.20
2022-11-28T07:33:01.601Z,19.21
2022-11-28T07:35:27.135Z,19.21
2022-11-28T07:37:52.695Z,19.22
2022-11-28T07:40:19.794Z,19.22
2022-11-28T07:42:45.354Z,19.22
2022-11-28T07:45:10.912Z,19.23
2022-11-28T07:47:36.464Z,19.23
2022-11-28T07:50:02.071Z,19.29
2022-11-28T07:52:27.614Z,19.36
2022-11-28T07:54:53.165Z,19.35
2022-11-28T07:57:18.712Z,19.35
2022-11-28T07:59:44.519Z,19.33
2022-11-28T08:02:10.831Z,19.32
2022-11-28T08:04:36.908Z,19.33
2022-11-28T08:07:02.563Z,19.34
2022-11-28T08:09:28.757Z,19.34
2022-11-28T08:11:54.299Z,19.32
2022-11-28T08:14:19.850Z,19.33
2022-11-28T08:16:45.552Z,19.32
2022-11-28T08:19:11.181Z,19.33
2022-11-28T08:21:36.738Z,19.33
2022-11-28T08:24:02.619Z,19.33
2022-11-28T08:26:30.593Z,19.33
2022-11-28T08:28:56.523Z,19.34
2022-11-28T08:31:23.144Z,19.33
2022-11-28T08:33:49.286Z,19.33
2022-11-28T08:36:15.454Z,19.33
2022-11-28T08:38:44.830Z,19.32
2022-11-28T08:41:17.245Z,19.34
2022-11-28T08:43:42.800Z,19.34
2022-11-28T08:46:09.795Z,19.35
2022-11-28T08:48:35.953Z,19.35
2022-11-28T08:51:01.525Z,19.36
2022-11-28T08:53:27.084Z,19.36
2022-11-28T08:55:52.653Z,19.36
2022-11-28T08:58:18.202Z,19.37
2022-11-28T09:00:43.738Z,19.36
2022-11-28T09:03:11.909Z,19.35
2022-11-28T09:05:37.554Z,19.35
2022-11-28T09:08:03.225Z,19.36
2022-11-28T09:10:28.823Z,19.36
2022-11-28T09:12:54.382Z,19.34
2022-11-28T09:15:19.940Z,19.34
2022-11-28T09:17:45.520Z,19.34
2022-11-28T09:20:11.203Z,19.34
2022-11-28T09:22:36.766Z,19.35
2022-11-28T09:25:02.314Z,19.34
2022-11-28T09:27:27.853Z,19.35
2022-11-28T09:29:53.417Z,19.35
2022-11-28T09:32:18.980Z,19.30
2022-11-28T09:34:44.543Z,19.34
2022-11-28T09:37:10.086Z,19.36
2022-11-28T09:39:44.359Z,19.35
2022-11-28T09:42:30.060Z,19.37
2022-11-28T09:44:57.970Z,19.36
2022-11-28T09:47:25.354Z,19.36
2022-11-28T09:49:53.661Z,19.37
2022-11-28T09:52:28.329Z,19.37
2022-11-28T09:55:03.237Z,19.22
2022-11-28T09:57:48.786Z,19.32
2022-11-28T10:00:16.739Z,19.37
2022-11-28T10:03:02.172Z,19.36
2022-11-28T10:05:41.553Z,19.40
2022-11-28T10:08:26.978Z,19.40
2022-11-28T10:10:57.923Z,19.39
2022-11-28T10:16:08.966Z,19.39
2022-11-28T10:18:39.354Z,19.40
2022-11-28T10:21:09.781Z,19.39
2022-11-28T10:23:39.771Z,19.39
2022-11-28T10:26:07.419Z,19.41
2022-11-28T10:28:34.669Z,19.41
2022-11-28T10:31:05.335Z,19.40
2022-11-28T10:33:50.784Z,19.40
2022-11-28T10:36:20.793Z,19.41
2022-11-28T10:38:46.356Z,19.41
2022-11-28T10:41:14.821Z,19.42
2022-11-28T10:44:00.266Z,19.41
2022-11-28T10:46:36.992Z,19.41
2022-11-28T10:49:16.012Z,19.42
2022-11-28T10:52:01.441Z,19.42
2022-11-28T10:54:46.458Z,19.42
2022-11-28T10:57:17.166Z,19.42
2022-11-28T10:59:47.719Z,19.42
2022-11-28T11:02:33.150Z,19.42
2022-11-28T11:04:58.765Z,19.42
2022-11-28T11:07:29.499Z,19.43
2022-11-28T11:09:56.693Z,19.42
2022-11-28T11:12:24.847Z,19.42
2022-11-28T11:14:50.394Z,19.42
2022-11-28T11:17:23.787Z,19.42
2022-11-28T11:19:49.338Z,19.40
2022-11-28T11:22:19.116Z,19.41
2022-11-28T11:24:58.384Z,19.41
2022-11-28T11:27:23.926Z,19.41
2022-11-28T11:29:51.627Z,19.41
2022-11-28T11:32:20.790Z,19.41
2022-11-28T11:34:46.428Z,19.40
2022-11-28T11:37:31.940Z,19.39
2022-11-28T11:39:57.588Z,19.40
2022-11-28T11:42:25.570Z,19.39
2022-11-28T11:44:51.259Z,19.42
2022-11-28T11:47:17.030Z,19.43
2022-11-28T11:49:44.967Z,19.41
2022-11-28T11:52:13.681Z,19.41
2022-11-28T11:54:39.622Z,19.42
2022-11-28T11:57:31.304Z,19.40
2022-11-28T11:59:52.582Z,19.42
2022-11-28T12:02:38.221Z,19.41
2022-11-28T12:05:05.298Z,19.41
2022-11-28T12:07:38.995Z,19.42
2022-11-28T12:10:05.183Z,19.42
2022-11-28T12:12:30.832Z,19.43
2022-11-28T12:14:56.388Z,19.43
2022-11-28T12:17:51.454Z,19.42
2022-11-28T12:20:38.937Z,19.44
2022-11-28T12:23:24.606Z,19.45
2022-11-28T12:25:52.760Z,19.43
2022-11-28T12:28:37.714Z,19.44
2022-11-28T12:31:07.988Z,19.44
2022-11-28T12:33:53.493Z,19.43
2022-11-28T12:36:38.978Z,19.45
2022-11-28T12:39:10.811Z,19.45
2022-11-28T12:41:56.295Z,19.40
2022-11-28T12:44:26.220Z,19.39
2022-11-28T12:47:02.453Z,19.43
2022-11-28T12:49:47.941Z,19.44
2022-11-28T12:52:18.200Z,19.44
2022-11-28T12:54:54.452Z,19.44
2022-11-28T12:57:39.893Z,19.44
2022-11-28T13:00:09.782Z,19.46
2022-11-28T13:02:55.274Z,19.46
2022-11-28T13:05:22.016Z,19.45
2022-11-28T13:08:07.440Z,19.45
2022-11-28T13:10:41.804Z,19.46
2022-11-28T13:13:09.808Z,19.45
2022-11-28T13:15:39.994Z,19.14
2022-11-28T13:18:25.470Z,19.32
2022-11-28T13:20:52.580Z,19.42
2022-11-28T13:23:20.826Z,19.43
2022-11-28T13:25:48.602Z,19.44
2022-11-28T13:28:18.724Z,19.45
2022-11-28T13:30:46.106Z,19.45
2022-11-28T13:33:31.556Z,19.46
2022-11-28T13:35:57.704Z,19.46
2022-11-28T13:38:50.491Z,19.46
2022-11-28T13:41:28.811Z,19.44
2022-11-28T13:44:03.806Z,19.33
2022-11-28T13:46:29.585Z,19.42
2022-11-28T13:49:14.239Z,19.42
2022-11-28T13:51:40.250Z,19.45
2022-11-28T13:54:22.935Z,19.46
2022-11-28T13:59:39.098Z,18.56
2022-11-28T14:02:12.134Z,18.55
2022-11-28T14:04:41.385Z,18.58
2022-11-28T14:07:07.213Z,18.76
2022-11-28T14:09:37.638Z,19.16
2022-11-28T14:12:07.791Z,19.33
2022-11-28T14:14:44.538Z,19.39
2022-11-28T14:17:16.135Z,19.41
2022-11-28T14:19:52.991Z,19.43
2022-11-28T14:22:24.856Z,19.44
2022-11-28T14:25:01.191Z,19.44
2022-11-28T14:27:27.403Z,19.44
2022-11-28T14:29:53.947Z,19.44
2022-11-28T14:32:30.193Z,19.44
2022-11-28T14:34:56.626Z,19.44
2022-11-28T14:37:42.051Z,19.46
2022-11-28T14:40:27.541Z,19.46
2022-11-28T14:43:12.976Z,19.47
2022-11-28T14:45:39.343Z,19.50
2022-11-28T14:48:24.958Z,19.51
2022-11-28T14:50:54.728Z,19.52
2022-11-28T14:53:44.769Z,19.51
2022-11-28T14:56:21.659Z,19.51
2022-11-28T14:58:48.165Z,19.50
2022-11-28T15:01:15.118Z,19.51
2022-11-28T15:03:52.826Z,19.51
2022-11-28T15:06:20.109Z,19.52
2022-11-28T15:09:06.293Z,19.53
2022-11-28T15:11:38.503Z,19.53
2022-11-28T15:14:09.151Z,19.51
2022-11-28T15:16:35.924Z,19.52
2022-11-28T15:19:05.279Z,19.52
2022-11-28T15:21:32.376Z,19.52
2022-11-28T15:23:57.932Z,19.52
2022-11-28T15:26:27.602Z,19.52
2022-11-28T15:29:13.034Z,19.51
2022-11-28T15:31:38.650Z,19.52
2022-11-28T15:34:06.821Z,19.51
2022-11-28T15:36:32.382Z,19.51
2022-11-28T15:38:57.945Z,19.51
2022-11-28T15:41:24.331Z,19.52
2022-11-28T15:43:50.041Z,19.51
2022-11-28T15:46:18.463Z,19.50
2022-11-28T15:48:48.169Z,19.50
2022-11-28T15:51:29.748Z,19.49
2022-11-28T15:53:55.496Z,19.50
2022-11-28T15:56:21.043Z,19.51
2022-11-28T15:58:47.060Z,19.51
2022-11-28T16:01:27.809Z,19.51
2022-11-28T16:03:54.202Z,19.51
2022-11-28T16:06:19.798Z,19.51
2022-11-28T16:08:47.147Z,19.52
2022-11-28T16:11:14.359Z,19.51
2022-11-28T16:13:40.167Z,19.51
2022-11-28T16:16:08.545Z,19.51
2022-11-28T16:18:34.142Z,19.50
2022-11-28T16:20:59.793Z,19.51
2022-11-28T16:23:27.050Z,19.50
2022-11-28T16:26:00.327Z,19.50
2022-11-28T16:28:27.049Z,19.50
2022-11-28T16:30:52.594Z,19.49
2022-11-28T16:33:33.920Z,19.49
2022-11-28T16:36:07.918Z,19.48
2022-11-28T16:38:33.472Z,19.48
2022-11-28T16:40:59.365Z,19.49
2022-11-28T16:43:30.201Z,19.47
2022-11-28T16:45:56.508Z,19.47
2022-11-28T16:48:26.225Z,19.47
2022-11-28T16:51:11.952Z,19.48
2022-11-28T16:59:19.465Z,19.46
2022-11-28T17:01:45.539Z,19.46
2022-11-28T17:04:19.861Z,19.45
2022-11-28T17:06:45.495Z,19.44
2022-11-28T17:09:11.455Z,19.44
2022-11-28T17:11:37.872Z,19.44
2022-11-28T17:14:06.196Z,19.44
2022-11-28T17:16:35.964Z,19.44
2022-11-28T17:19:01.550Z,19.44
2022-11-28T17:21:42.815Z,19.44
2022-11-28T17:24:13.250Z,19.43
2022-11-28T17:26:38.790Z,19.44
2022-11-28T17:29:04.354Z,19.44
2022-11-28T17:31:29.941Z,19.44
2022-11-28T17:33:55.530Z,19.43
2022-11-28T17:36:21.093Z,19.42
2022-11-28T17:38:46.661Z,19.43
2022-11-28T17:41:13.421Z,19.42
2022-11-28T17:43:39.505Z,19.43
2022-11-28T17:46:05.127Z,19.43
2022-11-28T17:48:30.702Z,19.43
2022-11-28T17:50:56.265Z,19.42
2022-11-28T17:53:21.851Z,19.42
2022-11-28T17:55:47.889Z,19.42
2022-11-28T17:58:15.369Z,19.42
2022-11-28T18:00:40.938Z,19.41
2022-11-28T18:03:07.646Z,19.41
2022-11-28T18:05:37.522Z,19.41
2022-11-28T18:08:03.094Z,19.41
2022-11-28T18:10:28.637Z,19.41
2022-11-28T18:12:55.437Z,19.42
2022-11-28T18:15:20.985Z,19.41
2022-11-28T18:17:47.575Z,19.41
2022-11-28T18:20:13.112Z,19.41
2022-11-28T18:22:38.662Z,19.40
2022-11-28T18:25:04.514Z,19.41
2022-11-28T18:27:30.075Z,19.40
2022-11-28T18:29:55.625Z,19.40
2022-11-28T18:32:21.170Z,19.40
2022-11-28T18:34:46.723Z,19.39
2022-11-28T18:37:12.273Z,19.39
2022-11-28T18:39:37.816Z,19.40
2022-11-28T18:42:04.083Z,19.40
2022-11-28T18:44:29.902Z,19.39
2022-11-28T18:46:55.460Z,19.39
2022-11-28T18:49:21.031Z,19.39
2022-11-28T18:51:47.594Z,19.39
2022-11-28T18:54:17.661Z,19.39
2022-11-28T18:56:46.294Z,19.38
2022-11-28T18:59:11.846Z,19.39
2022-11-28T19:01:37.430Z,19.39
2022-11-28T19:04:06.794Z,19.38
2022-11-28T19:06:33.985Z,19.38
2022-11-28T19:09:00.129Z,19.38
2022-11-28T19:11:27.587Z,19.37
2022-11-28T19:13:53.195Z,19.37
2022-11-28T19:16:20.111Z,19.38
2022-11-28T19:18:45.800Z,19.38
2022-11-28T19:21:12.073Z,19.37
2022-11-28T19:23:37.761Z,19.37
2022-11-28T19:26:03.980Z,19.37
2022-11-28T19:28:29.533Z,19.37
2022-11-28T19:30:56.642Z,19.37
2022-11-28T19:33:22.192Z,19.37
2022-11-28T19:35:47.729Z,19.37
2022-11-28T19:38:13.286Z,19.37
2022-11-28T19:40:38.830Z,19.36
2022-11-28T19:43:04.383Z,19.36
2022-11-28T19:45:29.962Z,19.36
2022-11-28T19:47:55.551Z,19.35
2022-11-28T19:50:21.099Z,19.36
2022-11-28T19:52:47.005Z,19.36
2022-11-28T19:55:12.546Z,19.37
2022-11-28T19:57:38.094Z,19.35
2022-11-28T20:00:04.262Z,19.36
2022-11-28T20:02:29.826Z,19.35
2022-11-28T20:04:55.428Z,19.35
2022-11-28T20:07:21.004Z,19.35
2022-11-28T20:09:47.444Z,19.35
2022-11-28T20:12:13.066Z,19.34
2022-11-28T20:14:38.640Z,19.34
2022-11-28T20:17:04.181Z,19.34
2022-11-28T20:19:29.739Z,19.34
2022-11-28T20:21:56.972Z,19.35
2022-11-28T20:24:22.521Z,19.34
2022-11-28T20:26:49.654Z,19.34
2022-11-28T20:29:15.422Z,19.34
2022-11-28T20:31:44.365Z,19.34
2022-11-28T20:34:10.158Z,19.34
2022-11-28T20:36:35.799Z,19.34
2022-11-28T20:39:01.404Z,19.34
2022-11-28T20:41:27.258Z,19.33
2022-11-28T20:43:52.845Z,19.34
2022-11-28T20:46:20.282Z,19.33
2022-11-28T20:48:45.843Z,19.33
2022-11-28T20:51:12.443Z,19.34
2022-11-28T20:53:40.385Z,19.33
2022-11-28T20:56:06.911Z,19.33
2022-11-28T20:58:32.472Z,19.33
2022-11-28T21:00:58.060Z,19.34
2022-11-28T21:03:23.797Z,19.33
2022-11-28T21:05:49.342Z,19.33
2022-11-28T21:08:14.900Z,19.33
2022-11-28T21:10:40.450Z,19.33
2022-11-28T21:13:06.453Z,19.32
2022-11-28T21:15:32.004Z,19.32
2022-11-28T21:17:57.559Z,19.32
2022-11-28T21:20:23.099Z,19.32
2022-11-28T21:22:48.649Z,19.30
2022-11-28T21:25:14.187Z,19.31
2022-11-28T21:27:39.741Z,19.33
2022-11-28T21:30:05.585Z,19.31
2022-11-28T21:32:31.139Z,19.32
2022-11-28T21:35:02.582Z,19.32
2022-11-28T21:37:29.914Z,19.32
2022-11-28T21:39:55.476Z,19.31
2022-11-28T21:42:21.079Z,19.31
2022-11-28T21:44:46.634Z,19.30
2022-11-28T21:47:12.182Z,19.30
2022-11-28T21:49:37.738Z,19.30
2022-11-28T21:52:05.138Z,19.30
2022-11-28T21:54:30.695Z,19.32
2022-11-28T21:56:56.237Z,19.31
2022-11-28T21:59:21.887Z,19.30
2022-11-28T22:01:47.479Z,19.29
2022-11-28T22:04:13.094Z,19.30
2022-11-28T22:06:38.637Z,19.30
2022-11-28T22:09:09.243Z,19.30
2022-11-28T22:11:35.375Z,19.29
2022-11-28T22:14:00.935Z,19.29
2022-11-28T22:16:27.348Z,19.29
2022-11-28T22:18:54.020Z,19.29
2022-11-28T22:21:50.514Z,19.29
2022-11-28T22:24:05.383Z,19.30
2022-11-28T22:26:31.098Z,19.29
2022-11-28T22:28:57.948Z,19.29
2022-11-28T22:31:23.582Z,19.29
2022-11-28T22:33:49.374Z,19.28
2022-11-28T22:36:15.889Z,19.28
2022-11-28T22:38:41.648Z,19.29
2022-11-28T22:41:08.421Z,19.28
2022-11-28T22:43:34.209Z,19.28
2022-11-28T22:45:59.833Z,19.28
2022-11-28T22:48:25.468Z,19.28
2022-11-28T22:50:51.091Z,19.28
2022-11-28T22:53:16.676Z,19.28
2022-11-28T22:55:42.217Z,19.28
2022-11-28T22:58:07.777Z,19.28
2022-11-28T23:00:33.328Z,19.28
2022-11-28T23:02:59.003Z,19.27
2022-11-28T23:05:24.581Z,19.27
2022-11-28T23:07:50.251Z,19.27
2022-11-28T23:10:16.316Z,19.28
2022-11-28T23:12:41.865Z,19.27
2022-11-28T23:15:07.994Z,19.26
2022-11-28T23:17:33.571Z,19.26
2022-11-28T23:19:59.147Z,19.26
2022-11-28T23:22:24.782Z,19.27
2022-11-28T23:24:50.324Z,19.27
2022-11-28T23:27:15.875Z,19.27
2022-11-28T23:29:41.429Z,19.26
2022-11-28T23:32:07.020Z,19.26
2022-11-28T23:34:32.576Z,19.26
2022-11-28T23:36:58.139Z,19.26
2022-11-28T23:39:23.709Z,19.25
2022-11-28T23:41:49.380Z,19.26
2022-11-28T23:44:15.327Z,19.26
2022-11-28T23:46:41.143Z,19.26
2022-11-28T23:49:06.834Z,19.25
2022-11-28T23:51:32.612Z,19.25
2022-11-28T23:53:58.150Z,19.25
2022-11-28T23:56:25.070Z,19.26
2022-11-28T23:58:50.964Z,19.26
